LOT2LK EPWA-EPRZ
Flight info
| Callsign | LOT2LK |
|---|---|
| Flight time | 0h 33m |
| Altitude | 19000 |
| Route | EVINA DCT KOTEK L981 ETITI |
| Aircraft | B738/M-SDE2E3FGHIRWXY/LB1 |
Departure
| Time | 2026-04-26 18:07 |
|---|---|
| Airport | Warsaw Chopin Airport (EPWA) |
Arrival
| Time | 2026-04-26 18:41 |
|---|---|
| Airport | Rzeszów-Jasionka Airport (EPRZ) |
| Time | Latitude | Longitude | Altitude | Speed | Heading |
|---|---|---|---|---|---|
| 2026-04-26 17:35 | 52.16913 | 20.97217 | 333 ft | 0 kts | 76° |
| 2026-04-26 17:36 | 52.16914 | 20.97226 | 333 ft | 0 kts | 76° |
| 2026-04-26 18:01 | 52.16913 | 20.97221 | 333 ft | 3 kts | 76° |
| 2026-04-26 18:01 | 52.16907 | 20.97180 | 335 ft | 4 kts | 76° |
| 2026-04-26 18:01 | 52.16901 | 20.97137 | 332 ft | 3 kts | 76° |
| 2026-04-26 18:01 | 52.16897 | 20.97103 | 334 ft | 4 kts | 94° |
| 2026-04-26 18:02 | 52.16905 | 20.97065 | 332 ft | 4 kts | 139° |
| 2026-04-26 18:02 | 52.16919 | 20.97049 | 332 ft | 4 kts | 152° |
| 2026-04-26 18:02 | 52.16923 | 20.97045 | 333 ft | 0 kts | 152° |
| 2026-04-26 18:04 | 52.16918 | 20.97049 | 332 ft | 5 kts | 152° |
| 2026-04-26 18:05 | 52.16754 | 20.97192 | 336 ft | 15 kts | 152° |
| 2026-04-26 18:05 | 52.16665 | 20.97269 | 335 ft | 14 kts | 152° |
| 2026-04-26 18:05 | 52.16586 | 20.97358 | 338 ft | 14 kts | 131° |
| 2026-04-26 18:05 | 52.16541 | 20.97490 | 337 ft | 14 kts | 115° |
| 2026-04-26 18:06 | 52.16497 | 20.97648 | 335 ft | 18 kts | 114° |
| 2026-04-26 18:06 | 52.16447 | 20.97796 | 337 ft | 11 kts | 147° |
| 2026-04-26 18:06 | 52.16373 | 20.97777 | 337 ft | 11 kts | 209° |
| 2026-04-26 18:06 | 52.16318 | 20.97694 | 339 ft | 15 kts | 258° |
| 2026-04-26 18:07 | 52.16403 | 20.97326 | 334 ft | 67 kts | 295° |
| 2026-04-26 18:07 | 52.16693 | 20.96296 | 336 ft | 130 kts | 295° |
| 2026-04-26 18:07 | 52.17166 | 20.94812 | 675 ft | 151 kts | 300° |
| 2026-04-26 18:07 | 52.17460 | 20.93806 | 1241 ft | 150 kts | 297° |
| 2026-04-26 18:08 | 52.18019 | 20.91658 | 2209 ft | 154 kts | 298° |
| 2026-04-26 18:08 | 52.18219 | 20.89811 | 2653 ft | 189 kts | 268° |
| 2026-04-26 18:08 | 52.17850 | 20.87604 | 2971 ft | 212 kts | 262° |
| 2026-04-26 18:08 | 52.17517 | 20.85175 | 3316 ft | 226 kts | 264° |
| 2026-04-26 18:09 | 52.17197 | 20.82558 | 3669 ft | 242 kts | 264° |
| 2026-04-26 18:09 | 52.16857 | 20.79767 | 4140 ft | 259 kts | 264° |
| 2026-04-26 18:09 | 52.16488 | 20.76935 | 5273 ft | 249 kts | 263° |
| 2026-04-26 18:09 | 52.16117 | 20.74200 | 6120 ft | 254 kts | 264° |
| 2026-04-26 18:10 | 52.15611 | 20.71325 | 6701 ft | 274 kts | 249° |
| 2026-04-26 18:10 | 52.14382 | 20.68916 | 7571 ft | 280 kts | 224° |
| 2026-04-26 18:10 | 52.12704 | 20.67227 | 8342 ft | 294 kts | 205° |
| 2026-04-26 18:10 | 52.10698 | 20.66298 | 9016 ft | 303 kts | 196° |
| 2026-04-26 18:11 | 52.08660 | 20.65519 | 9837 ft | 305 kts | 198° |
| 2026-04-26 18:11 | 52.06583 | 20.64653 | 10475 ft | 313 kts | 199° |
| 2026-04-26 18:11 | 52.04398 | 20.63728 | 10680 ft | 337 kts | 199° |
| 2026-04-26 18:11 | 52.02052 | 20.62734 | 10860 ft | 359 kts | 199° |
| 2026-04-26 18:12 | 51.99582 | 20.61688 | 11247 ft | 373 kts | 199° |
| 2026-04-26 18:12 | 51.97049 | 20.60615 | 11840 ft | 379 kts | 199° |
| 2026-04-26 18:12 | 51.94472 | 20.59523 | 12503 ft | 385 kts | 199° |
| 2026-04-26 18:12 | 51.91858 | 20.58411 | 13137 ft | 391 kts | 200° |
| 2026-04-26 18:13 | 51.89213 | 20.57284 | 13836 ft | 396 kts | 200° |
| 2026-04-26 18:13 | 51.86525 | 20.56138 | 14472 ft | 402 kts | 201° |
| 2026-04-26 18:13 | 51.83810 | 20.54981 | 15107 ft | 407 kts | 201° |
| 2026-04-26 18:13 | 51.81987 | 20.54205 | 15547 ft | 410 kts | 201° |
| 2026-04-26 18:14 | 51.78264 | 20.52620 | 16442 ft | 416 kts | 201° |
| 2026-04-26 18:14 | 51.75444 | 20.51422 | 17111 ft | 421 kts | 202° |
| 2026-04-26 18:14 | 51.72602 | 20.50216 | 17750 ft | 426 kts | 202° |
| 2026-04-26 18:14 | 51.69720 | 20.48994 | 18381 ft | 431 kts | 202° |
| 2026-04-26 18:15 | 51.66843 | 20.47776 | 18965 ft | 434 kts | 202° |
| 2026-04-26 18:15 | 51.63875 | 20.46523 | 19230 ft | 440 kts | 202° |
| 2026-04-26 18:15 | 51.60908 | 20.45265 | 19229 ft | 451 kts | 202° |
| 2026-04-26 18:15 | 51.57865 | 20.43983 | 19229 ft | 451 kts | 202° |
| 2026-04-26 18:16 | 51.54805 | 20.42873 | 19222 ft | 453 kts | 196° |
| 2026-04-26 18:16 | 51.48542 | 20.41578 | 19224 ft | 454 kts | 193° |
| 2026-04-26 18:16 | 51.45404 | 20.41023 | 19189 ft | 454 kts | 193° |
| 2026-04-26 18:17 | 51.42271 | 20.40458 | 19212 ft | 454 kts | 193° |
| 2026-04-26 18:17 | 51.39127 | 20.39869 | 19223 ft | 454 kts | 193° |
| 2026-04-26 18:17 | 51.35992 | 20.39260 | 19226 ft | 454 kts | 193° |
| 2026-04-26 18:17 | 51.32847 | 20.38635 | 19227 ft | 455 kts | 193° |
| 2026-04-26 18:18 | 51.29689 | 20.38124 | 19216 ft | 461 kts | 185° |
| 2026-04-26 18:18 | 51.26506 | 20.39001 | 19226 ft | 471 kts | 161° |
| 2026-04-26 18:18 | 51.23614 | 20.41474 | 19266 ft | 472 kts | 143° |
| 2026-04-26 18:18 | 51.21220 | 20.45014 | 19230 ft | 469 kts | 127° |
| 2026-04-26 18:19 | 51.19127 | 20.49006 | 19199 ft | 469 kts | 126° |
| 2026-04-26 18:19 | 51.17063 | 20.53022 | 19211 ft | 468 kts | 126° |
| 2026-04-26 18:19 | 51.15003 | 20.57033 | 19213 ft | 468 kts | 126° |
| 2026-04-26 18:19 | 51.12983 | 20.60934 | 19195 ft | 455 kts | 126° |
| 2026-04-26 18:20 | 51.10961 | 20.64797 | 19202 ft | 443 kts | 126° |
| 2026-04-26 18:20 | 51.09008 | 20.68503 | 19203 ft | 441 kts | 127° |
| 2026-04-26 18:20 | 51.07002 | 20.72293 | 19212 ft | 442 kts | 127° |
| 2026-04-26 18:20 | 51.05687 | 20.74772 | 19173 ft | 444 kts | 127° |
| 2026-04-26 18:21 | 51.03042 | 20.79739 | 18868 ft | 443 kts | 127° |
| 2026-04-26 18:21 | 51.01055 | 20.83458 | 18629 ft | 441 kts | 127° |
| 2026-04-26 18:21 | 50.99071 | 20.87167 | 18384 ft | 439 kts | 126° |
| 2026-04-26 18:21 | 50.97097 | 20.90851 | 18106 ft | 437 kts | 126° |
| 2026-04-26 18:22 | 50.95136 | 20.94508 | 17896 ft | 434 kts | 127° |
| 2026-04-26 18:22 | 50.93186 | 20.98137 | 17716 ft | 430 kts | 127° |
| 2026-04-26 18:22 | 50.91250 | 21.01737 | 17518 ft | 428 kts | 127° |
| 2026-04-26 18:22 | 50.89325 | 21.05311 | 17335 ft | 425 kts | 127° |
| 2026-04-26 18:23 | 50.87408 | 21.08868 | 17154 ft | 424 kts | 127° |
| 2026-04-26 18:23 | 50.85490 | 21.12421 | 17014 ft | 423 kts | 127° |
| 2026-04-26 18:23 | 50.83579 | 21.15957 | 16829 ft | 423 kts | 126° |
| 2026-04-26 18:23 | 50.81684 | 21.19457 | 16645 ft | 423 kts | 126° |
| 2026-04-26 18:24 | 50.79747 | 21.23031 | 16374 ft | 421 kts | 127° |
| 2026-04-26 18:24 | 50.77864 | 21.26497 | 15976 ft | 418 kts | 127° |
| 2026-04-26 18:24 | 50.75956 | 21.30004 | 15556 ft | 414 kts | 127° |
| 2026-04-26 18:24 | 50.74106 | 21.33402 | 15146 ft | 411 kts | 127° |
| 2026-04-26 18:25 | 50.72245 | 21.36815 | 14733 ft | 409 kts | 127° |
| 2026-04-26 18:25 | 50.70394 | 21.40206 | 14318 ft | 406 kts | 127° |
| 2026-04-26 18:25 | 50.68554 | 21.43573 | 13885 ft | 404 kts | 127° |
| 2026-04-26 18:25 | 50.66726 | 21.46914 | 13419 ft | 401 kts | 127° |
| 2026-04-26 18:26 | 50.64912 | 21.50222 | 13008 ft | 397 kts | 127° |
| 2026-04-26 18:26 | 50.63115 | 21.53498 | 12573 ft | 393 kts | 127° |
| 2026-04-26 18:26 | 50.61328 | 21.56749 | 12154 ft | 389 kts | 127° |
| 2026-04-26 18:26 | 50.59565 | 21.59955 | 11753 ft | 385 kts | 127° |
| 2026-04-26 18:27 | 50.57821 | 21.63121 | 11346 ft | 379 kts | 128° |
| 2026-04-26 18:27 | 50.56113 | 21.66215 | 10951 ft | 370 kts | 128° |
| 2026-04-26 18:27 | 50.54446 | 21.69233 | 10651 ft | 359 kts | 128° |
| 2026-04-26 18:27 | 50.52864 | 21.72092 | 10519 ft | 344 kts | 128° |
| 2026-04-26 18:28 | 50.51302 | 21.74911 | 10373 ft | 331 kts | 128° |
| 2026-04-26 18:28 | 50.49801 | 21.77622 | 10259 ft | 328 kts | 128° |
| 2026-04-26 18:28 | 50.48324 | 21.80288 | 10215 ft | 318 kts | 128° |
| 2026-04-26 18:28 | 50.46897 | 21.82858 | 10209 ft | 306 kts | 128° |
| 2026-04-26 18:29 | 50.45525 | 21.85324 | 10191 ft | 294 kts | 127° |
| 2026-04-26 18:29 | 50.44210 | 21.87687 | 10191 ft | 281 kts | 127° |
| 2026-04-26 18:29 | 50.42966 | 21.89920 | 10178 ft | 269 kts | 127° |
| 2026-04-26 18:29 | 50.41754 | 21.92096 | 10199 ft | 262 kts | 127° |
| 2026-04-26 18:30 | 50.40552 | 21.94257 | 10220 ft | 266 kts | 127° |
| 2026-04-26 18:30 | 50.39322 | 21.96471 | 10228 ft | 272 kts | 127° |
| 2026-04-26 18:30 | 50.38067 | 21.98723 | 10227 ft | 274 kts | 127° |
| 2026-04-26 18:30 | 50.36828 | 22.00939 | 10196 ft | 264 kts | 127° |
| 2026-04-26 18:31 | 50.35654 | 22.03030 | 10178 ft | 248 kts | 127° |
| 2026-04-26 18:31 | 50.34547 | 22.04999 | 10179 ft | 234 kts | 126° |
| 2026-04-26 18:31 | 50.33483 | 22.06899 | 10207 ft | 231 kts | 126° |
| 2026-04-26 18:31 | 50.32418 | 22.08803 | 10223 ft | 233 kts | 126° |
| 2026-04-26 18:32 | 50.31345 | 22.10722 | 10228 ft | 235 kts | 126° |
| 2026-04-26 18:32 | 50.30276 | 22.12626 | 10164 ft | 231 kts | 126° |
| 2026-04-26 18:32 | 50.29220 | 22.14507 | 9742 ft | 234 kts | 126° |
| 2026-04-26 18:32 | 50.28093 | 22.16522 | 8819 ft | 259 kts | 127° |
| 2026-04-26 18:33 | 50.26835 | 22.18771 | 7737 ft | 288 kts | 128° |
| 2026-04-26 18:33 | 50.25479 | 22.21179 | 7007 ft | 300 kts | 129° |
| 2026-04-26 18:33 | 50.24112 | 22.23594 | 6540 ft | 299 kts | 129° |
| 2026-04-26 18:33 | 50.22743 | 22.26014 | 6100 ft | 295 kts | 129° |
| 2026-04-26 18:34 | 50.21389 | 22.28408 | 5637 ft | 293 kts | 129° |
| 2026-04-26 18:34 | 50.20060 | 22.30754 | 5426 ft | 282 kts | 129° |
| 2026-04-26 18:34 | 50.18777 | 22.33015 | 5152 ft | 275 kts | 129° |
| 2026-04-26 18:34 | 50.17395 | 22.35113 | 4635 ft | 280 kts | 140° |
| 2026-04-26 18:35 | 50.15776 | 22.36753 | 4318 ft | 275 kts | 154° |
| 2026-04-26 18:35 | 50.13999 | 22.37629 | 4028 ft | 264 kts | 184° |
| 2026-04-26 18:35 | 50.12374 | 22.36870 | 3980 ft | 229 kts | 225° |
| 2026-04-26 18:35 | 50.11377 | 22.35174 | 3985 ft | 201 kts | 240° |
| 2026-04-26 18:36 | 50.10761 | 22.33421 | 3951 ft | 169 kts | 270° |
| 2026-04-26 18:36 | 50.10713 | 22.31627 | 3984 ft | 168 kts | 276° |
| 2026-04-26 18:36 | 50.10688 | 22.29794 | 3922 ft | 170 kts | 277° |
| 2026-04-26 18:36 | 50.10691 | 22.27951 | 3703 ft | 169 kts | 277° |
| 2026-04-26 18:37 | 50.10704 | 22.26140 | 3490 ft | 165 kts | 278° |
| 2026-04-26 18:37 | 50.10722 | 22.24382 | 3267 ft | 158 kts | 278° |
| 2026-04-26 18:37 | 50.10741 | 22.22675 | 3059 ft | 158 kts | 278° |
| 2026-04-26 18:37 | 50.10759 | 22.21010 | 2866 ft | 146 kts | 278° |
| 2026-04-26 18:38 | 50.10776 | 22.19465 | 2641 ft | 139 kts | 279° |
| 2026-04-26 18:38 | 50.10795 | 22.17964 | 2451 ft | 139 kts | 279° |
| 2026-04-26 18:38 | 50.10814 | 22.16455 | 2265 ft | 140 kts | 278° |
| 2026-04-26 18:38 | 50.10832 | 22.14932 | 2060 ft | 140 kts | 278° |
| 2026-04-26 18:39 | 50.10849 | 22.13451 | 1868 ft | 138 kts | 278° |
| 2026-04-26 18:39 | 50.10869 | 22.11933 | 1665 ft | 142 kts | 276° |
| 2026-04-26 18:39 | 50.10887 | 22.10389 | 1450 ft | 142 kts | 275° |
| 2026-04-26 18:39 | 50.10906 | 22.08851 | 1258 ft | 143 kts | 273° |
| 2026-04-26 18:40 | 50.10928 | 22.07292 | 1075 ft | 144 kts | 272° |
| 2026-04-26 18:40 | 50.10944 | 22.05746 | 834 ft | 139 kts | 272° |
| 2026-04-26 18:40 | 50.10962 | 22.04322 | 679 ft | 123 kts | 274° |
| 2026-04-26 18:40 | 50.10978 | 22.03304 | 690 ft | 63 kts | 271° |
| 2026-04-26 18:41 | 50.10986 | 22.02742 | 694 ft | 48 kts | 271° |
| 2026-04-26 18:41 | 50.10989 | 22.02390 | 694 ft | 12 kts | 270° |
| 2026-04-26 18:41 | 50.11039 | 22.02301 | 689 ft | 12 kts | 348° |
| 2026-04-26 18:41 | 50.11126 | 22.02296 | 683 ft | 14 kts | 0° |
| 2026-04-26 18:42 | 50.11221 | 22.02297 | 684 ft | 13 kts | 0° |
| 2026-04-26 18:42 | 50.11306 | 22.02329 | 690 ft | 13 kts | 47° |
| 2026-04-26 18:42 | 50.11325 | 22.02434 | 689 ft | 8 kts | 89° |
| 2026-04-26 18:42 | 50.11324 | 22.02513 | 690 ft | 4 kts | 89° |
| 2026-04-26 18:43 | 50.11346 | 22.02531 | 683 ft | 4 kts | 351° |
| 2026-04-26 18:43 | 50.11375 | 22.02534 | 689 ft | 4 kts | 2° |
| 2026-04-26 18:43 | 50.11405 | 22.02534 | 687 ft | 4 kts | 1° |
| 2026-04-26 18:43 | 50.11419 | 22.02535 | 688 ft | 2 kts | 1° |
| 2026-04-26 18:44 | 50.11421 | 22.02535 | 689 ft | 0 kts | 1° |
| 2026-04-26 18:45 | 50.11419 | 22.02535 | 688 ft | 0 kts | 0° |